Apollo Beach, Florida
Current Conditions -  °F | °C
As of 5:58 AM on Thursday 18 Dec 2014 (Local Time) from KMCF Reporting Station
Clear Clear  
Wind Chill: 47°   Ceiling: Unl
Heat Index: 47°   Visibility: 10mi
Dew Point: 46°   Wind: 0mph
Humidity: 98%   Direction: NA
Pressure: 30.14"   Gusts: NA
Location:  27.77°N, 82.39°W
Report Text: KMCF 181058Z AUTO 00000KT 10SM CLR 08/08 A3014 RMK AO2 SLP210 T00830080 $
Loading
Personal Weather Stations






























Interactive Weather Map New forecast layout! Learn more

10-Day Weather Forecast

Advertisements
Track Severe Weather on mobile